createdAt,value
2022-12-01T00:01:21.769Z,15.70
2022-12-01T00:03:48.657Z,14.55
2022-12-01T00:06:20.731Z,12.82
2022-12-01T00:09:08.471Z,14.68
2022-12-01T00:11:36.277Z,12.00
2022-12-01T00:14:03.232Z,13.80
2022-12-01T00:16:29.948Z,11.35
2022-12-01T00:18:56.878Z,15.20
2022-12-01T00:21:25.328Z,13.82
2022-12-01T00:23:55.377Z,11.23
2022-12-01T00:26:22.935Z,12.98
2022-12-01T00:28:54.981Z,11.43
2022-12-01T00:31:22.199Z,12.13
2022-12-01T00:33:48.850Z,12.07
2022-12-01T00:36:15.667Z,13.75
2022-12-01T00:38:42.434Z,15.00
2022-12-01T00:41:09.338Z,12.63
2022-12-01T00:43:35.941Z,12.85
2022-12-01T00:46:02.649Z,13.68
2022-12-01T00:48:29.434Z,12.40
2022-12-01T00:50:56.060Z,12.13
2022-12-01T00:53:24.272Z,13.43
2022-12-01T00:55:50.969Z,14.77
2022-12-01T00:58:17.519Z,18.50
2022-12-01T01:00:44.140Z,12.00
2022-12-01T01:03:11.772Z,13.25
2022-12-01T01:05:40.363Z,13.23
2022-12-01T01:08:08.929Z,16.02
2022-12-01T01:10:43.126Z,12.60
2022-12-01T01:13:10.374Z,14.60
2022-12-01T01:15:37.486Z,14.85
2022-12-01T01:18:04.906Z,12.75
2022-12-01T01:20:32.245Z,11.45
2022-12-01T01:22:58.915Z,13.30
2022-12-01T01:25:25.930Z,13.95
2022-12-01T01:27:52.557Z,14.00
2022-12-01T01:30:19.255Z,12.82
2022-12-01T01:32:45.869Z,12.15
2022-12-01T01:35:12.502Z,13.27
2022-12-01T01:37:39.513Z,10.95
2022-12-01T01:40:07.220Z,15.15
2022-12-01T01:42:33.839Z,12.00
2022-12-01T01:45:01.644Z,12.07
2022-12-01T01:47:32.582Z,11.95
2022-12-01T01:50:06.083Z,13.82
2022-12-01T01:52:36.341Z,14.68
2022-12-01T01:55:03.594Z,9.57
2022-12-01T01:57:33.914Z,11.88
2022-12-01T02:00:12.912Z,12.23
2022-12-01T02:02:44.151Z,10.63
2022-12-01T02:05:19.367Z,12.10
2022-12-01T02:07:47.650Z,11.80
2022-12-01T02:10:15.295Z,11.88
2022-12-01T02:13:12.692Z,13.55
2022-12-01T02:16:10.313Z,11.27
2022-12-01T02:18:53.299Z,16.13
2022-12-01T02:21:19.871Z,11.88
2022-12-01T02:24:11.703Z,13.02
2022-12-01T02:27:11.427Z,12.85
2022-12-01T02:30:07.853Z,18.52
2022-12-01T02:32:56.647Z,16.05
2022-12-01T02:35:53.488Z,16.05
2022-12-01T02:38:38.895Z,18.35
2022-12-01T02:41:19.870Z,13.25
2022-12-01T02:44:03.095Z,19.27
2022-12-01T02:46:33.228Z,16.17
2022-12-01T02:49:04.767Z,16.15
2022-12-01T02:51:32.565Z,14.80
2022-12-01T02:54:00.479Z,19.02
2022-12-01T02:56:27.244Z,19.27
2022-12-01T02:58:53.879Z,19.25
2022-12-01T03:01:37.209Z,19.70
2022-12-01T03:04:31.567Z,17.17
2022-12-01T03:07:35.317Z,18.35
2022-12-01T03:10:13.910Z,21.60
2022-12-01T03:12:47.862Z,16.98
2022-12-01T03:15:30.823Z,19.30
2022-12-01T03:18:06.430Z,20.80
2022-12-01T03:20:41.887Z,21.48
2022-12-01T03:23:13.329Z,20.13
2022-12-01T03:25:44.567Z,21.08
2022-12-01T03:28:23.029Z,21.15
2022-12-01T03:30:53.967Z,21.65
2022-12-01T03:33:29.460Z,20.35
2022-12-01T03:36:04.877Z,20.15
2022-12-01T03:38:36.012Z,23.33
2022-12-01T03:41:10.774Z,23.05
2022-12-01T03:43:42.703Z,22.33
2022-12-01T03:46:17.785Z,25.52
2022-12-01T03:48:45.123Z,23.63
2022-12-01T03:51:33.493Z,24.05
2022-12-01T03:54:17.910Z,21.30
2022-12-01T03:56:59.234Z,26.98
2022-12-01T03:59:27.589Z,27.33
2022-12-01T04:01:54.295Z,26.65
2022-12-01T04:04:21.172Z,25.73
2022-12-01T04:06:50.422Z,32.25
2022-12-01T04:09:17.196Z,31.05
2022-12-01T04:12:02.574Z,30.63
2022-12-01T04:14:30.147Z,32.70
2022-12-01T04:16:56.811Z,31.20
2022-12-01T04:19:23.436Z,30.63
2022-12-01T04:21:50.100Z,31.63
2022-12-01T04:24:16.701Z,33.17
2022-12-01T04:26:44.388Z,32.53
2022-12-01T04:29:11.887Z,32.85
2022-12-01T04:31:39.267Z,36.55
2022-12-01T04:34:06.277Z,33.03
2022-12-01T04:36:34.621Z,32.90
2022-12-01T04:39:02.059Z,38.50
2022-12-01T04:41:28.642Z,36.20
2022-12-01T04:43:56.125Z,38.40
2022-12-01T04:46:23.707Z,33.30
2022-12-01T04:48:50.608Z,45.22
2022-12-01T04:51:17.482Z,39.38
2022-12-01T04:53:44.214Z,38.92
2022-12-01T04:56:11.151Z,36.83
2022-12-01T04:58:38.169Z,39.60
2022-12-01T05:01:08.450Z,38.05
2022-12-01T05:03:39.787Z,34.33
2022-12-01T05:06:20.868Z,39.97
2022-12-01T05:08:48.040Z,32.22
2022-12-01T05:11:15.767Z,34.42
2022-12-01T05:13:45.049Z,36.47
2022-12-01T05:16:12.998Z,37.10
2022-12-01T05:18:40.171Z,35.53
2022-12-01T05:21:12.269Z,32.22
2022-12-01T05:23:39.200Z,31.75
2022-12-01T05:26:08.874Z,31.42
2022-12-01T05:28:36.331Z,30.73
2022-12-01T05:31:03.632Z,39.13
2022-12-01T05:33:31.563Z,30.73
2022-12-01T05:35:58.239Z,30.90
2022-12-01T05:38:24.851Z,33.42
2022-12-01T05:40:53.143Z,34.25
2022-12-01T05:43:26.850Z,33.17
2022-12-01T05:45:56.192Z,37.88
2022-12-01T05:48:23.341Z,32.83
2022-12-01T05:50:49.930Z,30.63
2022-12-01T05:53:17.532Z,34.80
2022-12-01T05:55:44.276Z,31.48
2022-12-01T05:58:11.598Z,32.70
2022-12-01T06:00:45.376Z,30.42
2022-12-01T06:03:13.016Z,30.38
2022-12-01T06:05:40.386Z,36.00
2022-12-01T06:08:07.455Z,31.30
2022-12-01T06:10:34.449Z,41.28
2022-12-01T06:13:01.023Z,32.38
2022-12-01T06:15:27.779Z,36.70
2022-12-01T06:17:54.362Z,34.95
2022-12-01T06:20:20.917Z,37.35
2022-12-01T06:22:47.530Z,41.53
2022-12-01T06:25:14.094Z,34.38
2022-12-01T06:27:40.647Z,36.53
2022-12-01T06:30:07.944Z,37.42
2022-12-01T06:32:34.533Z,41.10
2022-12-01T06:35:01.153Z,41.33
2022-12-01T06:37:28.299Z,38.63
2022-12-01T06:39:54.935Z,39.60
2022-12-01T06:42:21.518Z,33.63
2022-12-01T06:44:48.084Z,39.03
2022-12-01T06:47:15.754Z,34.85
2022-12-01T06:49:42.423Z,34.10
2022-12-01T06:52:10.115Z,38.83
2022-12-01T06:54:37.421Z,38.72
2022-12-01T06:57:04.814Z,38.88
2022-12-01T06:59:31.700Z,34.88
2022-12-01T07:01:58.907Z,35.60
2022-12-01T07:04:25.666Z,34.75
2022-12-01T07:06:52.260Z,32.83
2022-12-01T07:09:19.020Z,37.58
2022-12-01T07:11:45.650Z,33.05
2022-12-01T07:14:21.918Z,35.70
2022-12-01T07:16:51.341Z,33.97
2022-12-01T07:19:18.323Z,38.35
2022-12-01T07:21:45.007Z,31.35
2022-12-01T07:24:14.329Z,39.47
2022-12-01T07:26:41.449Z,37.67
2022-12-01T07:29:09.223Z,36.53
2022-12-01T07:31:37.576Z,33.80
2022-12-01T07:34:05.251Z,32.05
2022-12-01T07:36:32.080Z,28.83
2022-12-01T07:38:58.631Z,31.45
2022-12-01T07:41:25.333Z,35.20
2022-12-01T07:43:51.961Z,32.83
2022-12-01T07:46:24.683Z,31.13
2022-12-01T07:48:53.331Z,34.70
2022-12-01T07:51:21.172Z,35.80
2022-12-01T07:53:51.217Z,32.08
2022-12-01T07:56:18.940Z,32.40
2022-12-01T07:58:45.666Z,32.13
2022-12-01T08:01:17.406Z,37.00
2022-12-01T08:03:44.269Z,30.48
2022-12-01T08:06:11.467Z,32.20
2022-12-01T08:08:40.048Z,30.55
2022-12-01T08:11:14.643Z,33.35
2022-12-01T08:13:42.578Z,28.73
2022-12-01T08:16:12.042Z,28.35
2022-12-01T08:18:40.595Z,32.03
2022-12-01T08:21:09.170Z,27.95
2022-12-01T08:23:35.843Z,30.48
2022-12-01T08:26:04.431Z,30.98
2022-12-01T08:28:31.368Z,31.42
2022-12-01T08:30:58.007Z,33.05
2022-12-01T08:33:24.712Z,32.28
2022-12-01T08:35:51.727Z,27.38
2022-12-01T08:38:18.563Z,30.33
2022-12-01T08:40:45.167Z,30.65
2022-12-01T08:43:28.283Z,33.85
2022-12-01T08:46:02.834Z,30.95
2022-12-01T08:48:30.088Z,31.60
2022-12-01T08:51:08.307Z,31.92
2022-12-01T08:53:40.164Z,29.45
2022-12-01T08:56:15.485Z,32.42
2022-12-01T08:58:42.453Z,32.65
2022-12-01T09:01:14.390Z,31.40
2022-12-01T09:03:41.776Z,28.35
2022-12-01T09:06:22.511Z,27.17
2022-12-01T09:08:49.193Z,30.75
2022-12-01T09:11:18.305Z,30.20
2022-12-01T09:13:51.400Z,29.08
2022-12-01T09:16:21.027Z,33.15
2022-12-01T09:18:48.514Z,28.67
2022-12-01T09:21:18.455Z,39.95
2022-12-01T09:26:13.917Z,27.52
2022-12-01T09:28:40.713Z,22.92
2022-12-01T09:31:09.226Z,28.77
2022-12-01T09:33:36.652Z,26.42
2022-12-01T09:36:05.150Z,27.77
2022-12-01T09:38:34.201Z,25.95
2022-12-01T09:41:08.892Z,30.27
2022-12-01T09:44:14.247Z,30.30
2022-12-01T09:46:52.106Z,28.00
2022-12-01T09:49:46.794Z,35.40
2022-12-01T09:52:16.256Z,29.27
2022-12-01T09:54:43.105Z,28.65
2022-12-01T09:57:26.481Z,32.83
2022-12-01T09:59:54.340Z,25.20
2022-12-01T10:02:41.991Z,25.40
2022-12-01T10:05:19.112Z,21.33
2022-12-01T10:07:52.873Z,24.95
2022-12-01T10:10:36.995Z,22.98
2022-12-01T10:13:08.603Z,25.75
2022-12-01T10:15:51.190Z,22.77
2022-12-01T10:18:31.717Z,26.08
2022-12-01T10:20:59.075Z,22.38
2022-12-01T10:23:31.471Z,25.15
2022-12-01T10:26:03.099Z,22.08
2022-12-01T10:28:45.644Z,23.70
2022-12-01T10:31:22.417Z,22.40
2022-12-01T10:33:58.478Z,20.15
2022-12-01T10:36:26.672Z,22.30
2022-12-01T10:38:53.434Z,22.83
2022-12-01T10:41:22.112Z,23.05
2022-12-01T10:43:52.325Z,21.35
2022-12-01T10:46:25.088Z,22.15
2022-12-01T10:48:56.695Z,20.17
2022-12-01T10:51:24.440Z,17.85
2022-12-01T10:53:59.005Z,23.48
2022-12-01T10:56:25.952Z,20.15
2022-12-01T10:58:55.471Z,19.85
2022-12-01T11:01:28.124Z,17.77
2022-12-01T11:04:07.510Z,21.17
2022-12-01T11:06:37.358Z,15.23
2022-12-01T11:09:07.221Z,17.45
2022-12-01T11:14:27.894Z,22.55
2022-12-01T11:16:54.665Z,14.60
2022-12-01T11:19:33.927Z,20.20
2022-12-01T11:22:02.594Z,13.93
2022-12-01T11:24:43.042Z,14.18
2022-12-01T11:27:16.882Z,16.33
2022-12-01T11:29:43.753Z,15.45
2022-12-01T11:32:31.087Z,14.73
2022-12-01T11:35:15.012Z,12.52
2022-12-01T11:38:13.320Z,13.05
2022-12-01T11:40:53.534Z,15.73
2022-12-01T11:43:31.946Z,14.68
2022-12-01T11:46:02.312Z,15.63
2022-12-01T11:48:31.299Z,12.82
2022-12-01T11:51:12.977Z,13.40
2022-12-01T11:53:42.159Z,12.88
2022-12-01T11:56:38.243Z,14.48
2022-12-01T11:59:16.642Z,11.40
2022-12-01T12:02:07.711Z,12.80
2022-12-01T12:04:48.945Z,11.88
2022-12-01T12:07:54.401Z,13.30
2022-12-01T12:10:51.891Z,15.00
2022-12-01T12:13:40.382Z,13.30
2022-12-01T12:16:41.437Z,12.70
2022-12-01T12:20:00.224Z,15.73
2022-12-01T12:22:45.331Z,13.93
2022-12-01T12:25:39.586Z,14.70
2022-12-01T12:28:30.849Z,13.73
2022-12-01T12:31:19.240Z,14.27
2022-12-01T12:34:14.212Z,18.27
2022-12-01T12:36:55.345Z,16.63
2022-12-01T12:39:36.439Z,17.15
2022-12-01T12:42:13.708Z,17.73
2022-12-01T12:44:51.606Z,16.10
2022-12-01T12:47:33.769Z,18.25
2022-12-01T12:50:28.153Z,17.88
2022-12-01T12:53:03.676Z,22.35
2022-12-01T12:55:38.970Z,23.55
2022-12-01T12:58:26.767Z,20.55
2022-12-01T13:01:02.872Z,20.13
2022-12-01T13:04:00.004Z,22.83
2022-12-01T13:06:55.938Z,22.73
2022-12-01T13:09:38.766Z,20.88
2022-12-01T13:12:26.178Z,23.38
2022-12-01T13:15:01.185Z,27.02
2022-12-01T13:17:35.325Z,21.92
2022-12-01T13:20:02.069Z,18.65
2022-12-01T13:22:35.746Z,22.58
2022-12-01T13:25:04.107Z,23.55
2022-12-01T13:27:38.395Z,23.63
2022-12-01T13:30:05.828Z,24.63
2022-12-01T13:32:35.261Z,22.27
2022-12-01T13:35:06.276Z,27.63
2022-12-01T13:37:37.609Z,27.02
2022-12-01T13:40:16.238Z,31.08
2022-12-01T13:42:43.646Z,30.67
2022-12-01T13:45:19.036Z,27.23
2022-12-01T13:47:55.735Z,27.92
2022-12-01T13:50:44.417Z,32.00
2022-12-01T13:53:20.234Z,29.45
2022-12-01T13:56:15.777Z,33.22
2022-12-01T13:58:51.233Z,32.40
2022-12-01T14:01:20.761Z,31.83
2022-12-01T14:03:53.560Z,28.02
2022-12-01T14:06:40.937Z,30.30
2022-12-01T14:09:17.768Z,33.60
2022-12-01T14:12:00.246Z,33.20
2022-12-01T14:14:34.199Z,30.88
2022-12-01T14:17:03.102Z,31.42
2022-12-01T14:19:42.159Z,31.33
2022-12-01T14:22:36.995Z,31.43
2022-12-01T14:25:07.586Z,35.17
2022-12-01T14:27:43.134Z,35.70
2022-12-01T14:30:42.057Z,38.88
2022-12-01T14:33:39.674Z,38.03
2022-12-01T14:36:24.636Z,36.85
2022-12-01T14:38:58.835Z,39.90
2022-12-01T14:41:33.557Z,40.47
2022-12-01T14:44:22.827Z,40.08
2022-12-01T14:46:59.613Z,37.03
2022-12-01T14:49:32.046Z,38.38
2022-12-01T14:52:06.340Z,38.95
2022-12-01T14:54:42.389Z,42.00
2022-12-01T14:57:15.141Z,37.88
2022-12-01T14:59:43.330Z,35.00
2022-12-01T15:02:12.246Z,34.30
2022-12-01T15:05:08.236Z,35.28
2022-12-01T15:07:43.218Z,35.10
2022-12-01T15:10:27.343Z,35.45
2022-12-01T15:12:54.528Z,40.10
2022-12-01T15:15:24.353Z,33.00
2022-12-01T15:17:52.304Z,33.28
2022-12-01T15:20:30.973Z,35.85
2022-12-01T15:22:58.859Z,34.00
2022-12-01T15:25:29.515Z,36.90
2022-12-01T15:28:16.972Z,34.25
2022-12-01T15:30:47.009Z,36.63
2022-12-01T15:33:38.961Z,34.85
2022-12-01T15:36:14.026Z,35.58
2022-12-01T15:38:44.896Z,35.60
2022-12-01T15:41:29.165Z,35.65
2022-12-01T15:43:59.161Z,36.33
2022-12-01T15:46:30.913Z,31.98
2022-12-01T15:49:18.927Z,34.90
2022-12-01T15:54:19.445Z,37.58
2022-12-01T15:56:50.062Z,36.83
2022-12-01T15:59:40.992Z,42.65
2022-12-01T16:02:25.966Z,35.42
2022-12-01T16:05:13.647Z,38.20
2022-12-01T16:10:33.716Z,33.92
2022-12-01T16:13:38.023Z,40.42
2022-12-01T16:16:35.909Z,42.53
2022-12-01T16:19:11.061Z,37.33
2022-12-01T16:21:46.276Z,34.65
2022-12-01T16:24:17.159Z,37.05
2022-12-01T16:26:51.605Z,37.95
2022-12-01T16:29:20.799Z,38.38
2022-12-01T16:32:12.440Z,37.50
2022-12-01T16:34:45.971Z,40.60
2022-12-01T16:37:13.783Z,39.20
2022-12-01T16:39:40.347Z,38.00
2022-12-01T16:42:07.051Z,42.72
2022-12-01T16:44:33.670Z,34.05
2022-12-01T16:47:00.234Z,32.92
2022-12-01T16:49:26.902Z,34.55
2022-12-01T16:51:56.443Z,40.45
2022-12-01T16:54:22.743Z,39.38
2022-12-01T16:56:49.416Z,42.72
2022-12-01T16:59:16.037Z,36.15
2022-12-01T17:01:42.643Z,34.75
2022-12-01T17:04:09.271Z,34.90
2022-12-01T17:06:36.272Z,39.03
2022-12-01T17:09:02.971Z,34.88
2022-12-01T17:11:29.575Z,33.30
2022-12-01T17:13:56.191Z,34.60
2022-12-01T17:16:22.847Z,40.00
2022-12-01T17:18:49.467Z,38.33
2022-12-01T17:21:16.097Z,41.50
2022-12-01T17:23:42.636Z,36.38
2022-12-01T17:26:12.157Z,39.17
2022-12-01T17:28:39.613Z,38.92
2022-12-01T17:31:07.233Z,37.65
2022-12-01T17:33:34.876Z,40.65
2022-12-01T17:36:04.211Z,39.05
2022-12-01T17:38:30.944Z,43.58
2022-12-01T17:41:08.341Z,46.53
2022-12-01T17:43:36.300Z,37.72
2022-12-01T17:46:04.607Z,43.97
2022-12-01T17:48:38.938Z,38.10
2022-12-01T17:51:06.316Z,43.72
2022-12-01T17:53:33.540Z,38.90
2022-12-01T17:56:00.138Z,34.63
2022-12-01T17:58:26.768Z,37.50
2022-12-01T18:00:54.373Z,35.50
2022-12-01T18:03:21.667Z,37.80
2022-12-01T18:05:56.313Z,37.15
2022-12-01T18:08:24.197Z,40.13
2022-12-01T18:10:50.880Z,39.08
2022-12-01T18:13:20.191Z,37.03
2022-12-01T18:15:48.175Z,44.30
2022-12-01T18:18:14.877Z,41.58
2022-12-01T18:20:42.909Z,37.17
2022-12-01T18:23:11.025Z,39.53
2022-12-01T18:25:38.229Z,40.97
2022-12-01T18:28:06.084Z,42.40
2022-12-01T18:30:35.844Z,42.63
2022-12-01T18:33:02.488Z,45.97
2022-12-01T18:35:31.901Z,37.63
2022-12-01T18:37:58.741Z,42.00
2022-12-01T18:40:25.389Z,42.33
2022-12-01T18:42:52.020Z,40.15
2022-12-01T18:45:21.284Z,46.97
2022-12-01T18:47:48.245Z,39.05
2022-12-01T18:50:14.979Z,37.97
2022-12-01T18:52:41.694Z,41.40
2022-12-01T18:55:08.761Z,43.75
2022-12-01T18:57:35.577Z,49.30
2022-12-01T19:00:04.558Z,42.08
2022-12-01T19:02:31.371Z,45.40
2022-12-01T19:04:58.008Z,44.03
2022-12-01T19:07:29.497Z,45.17
2022-12-01T19:09:56.503Z,54.30
2022-12-01T19:12:23.160Z,48.85
2022-12-01T19:14:52.864Z,45.58
2022-12-01T19:19:46.726Z,44.53
2022-12-01T19:22:13.268Z,43.78
2022-12-01T19:24:39.859Z,47.45
2022-12-01T19:27:06.444Z,44.90
2022-12-01T19:29:33.065Z,44.25
2022-12-01T19:32:00.132Z,47.83
2022-12-01T19:34:26.814Z,45.92
2022-12-01T19:36:53.834Z,47.30
2022-12-01T19:39:20.438Z,44.30
2022-12-01T19:41:46.971Z,44.58
2022-12-01T19:44:13.578Z,47.50
2022-12-01T19:46:40.255Z,45.17
2022-12-01T19:49:06.991Z,44.70
2022-12-01T19:51:35.888Z,42.58
2022-12-01T19:54:07.360Z,41.63
2022-12-01T19:56:34.460Z,43.00
2022-12-01T19:59:01.055Z,46.50
2022-12-01T20:01:27.858Z,45.42
2022-12-01T20:03:55.153Z,44.45
2022-12-01T20:06:26.861Z,46.83
2022-12-01T20:08:55.581Z,44.45
2022-12-01T20:11:22.377Z,43.45
2022-12-01T20:13:49.037Z,41.40
2022-12-01T20:16:19.764Z,43.67
2022-12-01T20:18:47.248Z,48.13
2022-12-01T20:21:20.771Z,44.22
2022-12-01T20:23:54.515Z,41.30
2022-12-01T20:26:24.928Z,46.83
2022-12-01T20:28:54.381Z,42.90
2022-12-01T20:31:25.037Z,44.30
2022-12-01T20:33:53.596Z,41.97
2022-12-01T20:36:21.473Z,44.55
2022-12-01T20:38:48.279Z,43.53
2022-12-01T20:41:15.461Z,45.10
2022-12-01T20:43:42.381Z,43.17
2022-12-01T20:46:09.397Z,43.95
2022-12-01T20:48:36.139Z,41.88
2022-12-01T20:51:05.150Z,49.00
2022-12-01T20:53:32.139Z,46.10
2022-12-01T20:56:06.662Z,40.97
2022-12-01T20:58:37.443Z,36.70
2022-12-01T21:01:13.606Z,41.15
2022-12-01T21:03:42.428Z,43.33
2022-12-01T21:06:10.840Z,44.20
2022-12-01T21:08:39.468Z,42.25
2022-12-01T21:11:08.937Z,40.10
2022-12-01T21:13:44.390Z,47.05
2022-12-01T21:16:21.102Z,39.72
2022-12-01T21:18:54.838Z,38.97
2022-12-01T21:21:28.695Z,42.92
2022-12-01T21:24:09.601Z,49.05
2022-12-01T21:26:38.293Z,40.42
2022-12-01T21:29:25.473Z,42.65
2022-12-01T21:31:55.087Z,41.40
2022-12-01T21:34:24.007Z,39.28
2022-12-01T21:36:52.752Z,42.93
2022-12-01T21:39:22.134Z,41.60
2022-12-01T21:41:50.288Z,40.10
2022-12-01T21:44:22.037Z,40.53
2022-12-01T21:46:56.207Z,40.38
2022-12-01T21:49:35.071Z,40.92
2022-12-01T21:52:06.315Z,38.22
2022-12-01T21:54:34.695Z,40.75
2022-12-01T21:57:01.786Z,39.15
2022-12-01T21:59:28.386Z,46.10
2022-12-01T22:01:56.823Z,38.33
2022-12-01T22:04:28.926Z,45.85
2022-12-01T22:06:57.177Z,38.63
2022-12-01T22:09:27.528Z,44.53
2022-12-01T22:11:58.834Z,39.78
2022-12-01T22:14:32.863Z,34.63
2022-12-01T22:17:04.968Z,39.83
2022-12-01T22:19:33.993Z,41.03
2022-12-01T22:22:15.719Z,37.53
2022-12-01T22:25:00.019Z,34.38
2022-12-01T22:27:32.719Z,37.53
2022-12-01T22:30:07.508Z,39.55
2022-12-01T22:32:42.366Z,37.30
2022-12-01T22:35:28.552Z,35.97
2022-12-01T22:38:06.991Z,40.70
2022-12-01T22:40:45.422Z,39.70
2022-12-01T22:43:18.083Z,38.75
2022-12-01T22:45:52.627Z,31.38
2022-12-01T22:48:27.469Z,35.88
2022-12-01T22:50:54.780Z,32.22
2022-12-01T22:53:31.217Z,36.13
2022-12-01T22:56:00.728Z,34.30
2022-12-01T22:58:32.885Z,32.92
2022-12-01T23:01:17.303Z,29.02
2022-12-01T23:03:44.048Z,39.58
2022-12-01T23:06:49.203Z,36.20
2022-12-01T23:09:15.909Z,29.25
2022-12-01T23:11:52.150Z,27.10
2022-12-01T23:14:22.002Z,36.45
2022-12-01T23:19:15.478Z,26.08
2022-12-01T23:21:42.027Z,27.25
2022-12-01T23:24:13.169Z,29.27
2022-12-01T23:26:39.760Z,31.23
2022-12-01T23:29:06.338Z,29.60
2022-12-01T23:31:33.434Z,28.30
2022-12-01T23:34:00.044Z,24.30
2022-12-01T23:36:28.644Z,26.15
2022-12-01T23:39:01.144Z,23.45
2022-12-01T23:41:40.887Z,24.20
2022-12-01T23:44:22.419Z,29.48
2022-12-01T23:46:51.820Z,22.63
2022-12-01T23:49:25.579Z,25.50
2022-12-01T23:51:54.455Z,27.30
2022-12-01T23:54:25.096Z,28.27
2022-12-01T23:56:54.967Z,23.58
